Terminal Aerodrome Forecast
Issued by NWS Omaha/Valley, NE

Home | Current Version | Previous Version | Text Only | Print | Product List | Glossary On
Versions: 1 2 3 4 5 6 7 8 9 10 11 12 13 14 15 16 17 18 19 20 21 22 23 24 25 26 27 28 29 30 31 32 33 34 35 36 37 38 39 40 41 42 43 44 45
000
FTUS43 KOAX 262230 AAB
TAFLNK
TAF AMD
KLNK 262230Z 2623/2718 12020G30KT P6SM VCTS SCT040CB OVC110
      TEMPO 2623/2701 2SM +TSRA OVC025CB
     FM270100 10009KT P6SM VCTS BKN090CB
      TEMPO 2701/2704 -TSRA OVC050CB
     FM270600 13009KT P6SM -SHRA OVC100
     FM270900 14010KT 4SM BR OVC020=

USA.gov is the U.S. government's official web portal to all federal, state and local government web resources and services.